createdAt,value
2022-11-14T00:00:03.330Z,980.80
2022-11-14T00:01:03.432Z,980.72
2022-11-14T00:02:03.459Z,980.66
2022-11-14T00:03:03.628Z,980.92
2022-11-14T00:04:03.408Z,980.78
2022-11-14T00:05:03.224Z,980.75
2022-11-14T00:06:03.137Z,980.75
2022-11-14T00:07:03.404Z,980.69
2022-11-14T00:08:03.410Z,980.72
2022-11-14T00:09:03.460Z,980.83
2022-11-14T00:10:03.539Z,980.75
2022-11-14T00:11:03.603Z,980.81
2022-11-14T00:12:03.742Z,980.58
2022-11-14T00:13:03.778Z,980.56
2022-11-14T00:14:03.829Z,980.81
2022-11-14T00:15:03.906Z,980.75
2022-11-14T00:16:02.900Z,980.64
2022-11-14T00:17:03.045Z,980.73
2022-11-14T00:18:02.964Z,980.81
2022-11-14T00:19:02.912Z,980.76
2022-11-14T00:20:03.091Z,980.59
2022-11-14T00:21:03.251Z,980.76
2022-11-14T00:22:03.210Z,980.81
2022-11-14T00:23:03.296Z,980.79
2022-11-14T00:24:03.299Z,980.73
2022-11-14T00:25:03.393Z,980.68
2022-11-14T00:26:03.519Z,980.76
2022-11-14T00:27:03.485Z,980.71
2022-11-14T00:28:03.420Z,980.62
2022-11-14T00:29:03.441Z,980.65
2022-11-14T00:30:03.531Z,980.68
2022-11-14T00:31:03.571Z,980.63
2022-11-14T00:32:03.673Z,980.60
2022-11-14T00:33:03.656Z,980.55
2022-11-14T00:34:03.626Z,980.60
2022-11-14T00:35:03.653Z,980.66
2022-11-14T00:36:03.611Z,980.66
2022-11-14T00:37:03.721Z,980.49
2022-11-14T00:38:03.762Z,980.46
2022-11-14T00:39:03.753Z,980.66
2022-11-14T00:40:03.768Z,980.55
2022-11-14T00:41:03.802Z,980.52
2022-11-14T00:42:02.962Z,980.55
2022-11-14T00:43:02.976Z,980.38
2022-11-14T00:44:03.927Z,980.44
2022-11-14T00:45:02.951Z,980.50
2022-11-14T00:46:02.970Z,980.53
2022-11-14T00:47:02.980Z,980.47
2022-11-14T00:48:03.003Z,980.55
2022-11-14T00:49:03.012Z,980.39
2022-11-14T00:50:03.198Z,980.38
2022-11-14T00:51:03.197Z,980.35
2022-11-14T00:52:03.212Z,980.21
2022-11-14T00:53:03.317Z,980.16
2022-11-14T00:54:03.384Z,980.15
2022-11-14T00:55:03.383Z,979.98
2022-11-14T00:56:03.530Z,979.98
2022-11-14T00:57:03.563Z,980.03
2022-11-14T00:58:03.434Z,979.97
2022-11-14T00:59:03.523Z,979.80
2022-11-14T01:00:03.425Z,979.80
2022-11-14T01:01:03.913Z,979.87
2022-11-14T01:02:03.646Z,980.07
2022-11-14T01:03:03.496Z,979.90
2022-11-14T01:04:03.529Z,979.96
2022-11-14T01:05:03.567Z,979.88
2022-11-14T01:06:03.744Z,980.05
2022-11-14T01:07:03.727Z,980.11
2022-11-14T01:08:03.695Z,980.27
2022-11-14T01:09:03.880Z,980.00
2022-11-14T01:10:04.019Z,980.03
2022-11-14T01:11:03.177Z,980.06
2022-11-14T01:12:03.146Z,980.03
2022-11-14T01:13:03.251Z,980.01
2022-11-14T01:14:03.320Z,980.33
2022-11-14T01:15:03.267Z,980.12
2022-11-14T01:16:03.433Z,980.09
2022-11-14T01:17:03.488Z,980.04
2022-11-14T01:18:03.450Z,980.15
2022-11-14T01:19:03.626Z,980.01
2022-11-14T01:20:03.602Z,980.03
2022-11-14T01:21:03.675Z,980.17
2022-11-14T01:22:06.782Z,980.09
2022-11-14T01:23:03.670Z,979.94
2022-11-14T01:24:03.712Z,979.84
2022-11-14T01:25:03.749Z,979.81
2022-11-14T01:26:03.776Z,979.86
2022-11-14T01:27:03.157Z,979.96
2022-11-14T01:28:02.991Z,979.86
2022-11-14T01:29:02.910Z,979.83
2022-11-14T01:30:03.892Z,979.86
2022-11-14T01:31:03.862Z,979.83
2022-11-14T01:32:03.954Z,979.86
2022-11-14T01:33:02.932Z,979.86
2022-11-14T01:34:02.966Z,979.78
2022-11-14T01:35:02.932Z,979.76
2022-11-14T01:36:02.938Z,979.81
2022-11-14T01:37:03.026Z,979.81
2022-11-14T01:38:03.141Z,979.86
2022-11-14T01:39:03.088Z,979.82
2022-11-14T01:40:03.151Z,979.73
2022-11-14T01:41:03.165Z,979.76
2022-11-14T01:42:03.183Z,979.65
2022-11-14T01:43:03.217Z,979.71
2022-11-14T01:44:03.210Z,979.60
2022-11-14T01:45:03.169Z,979.65
2022-11-14T01:46:03.407Z,979.57
2022-11-14T01:47:03.291Z,979.63
2022-11-14T01:48:03.360Z,979.66
2022-11-14T01:49:03.292Z,979.68
2022-11-14T01:50:03.381Z,979.55
2022-11-14T01:51:03.589Z,979.57
2022-11-14T01:52:03.429Z,979.71
2022-11-14T01:53:03.746Z,979.60
2022-11-14T01:54:03.875Z,979.55
2022-11-14T01:55:03.058Z,979.63
2022-11-14T01:56:02.988Z,979.77
2022-11-14T01:57:02.936Z,979.49
2022-11-14T01:58:02.924Z,979.63
2022-11-14T01:59:02.945Z,979.69
2022-11-14T02:00:03.005Z,979.43
2022-11-14T02:01:03.494Z,979.49
2022-11-14T02:02:03.412Z,979.52
2022-11-14T02:03:03.385Z,979.49
2022-11-14T02:04:07.580Z,979.37
2022-11-14T02:05:03.550Z,979.46
2022-11-14T02:06:03.505Z,979.32
2022-11-14T02:07:03.838Z,979.37
2022-11-14T02:08:02.981Z,979.48
2022-11-14T02:09:03.366Z,979.32
2022-11-14T02:10:03.392Z,979.43
2022-11-14T02:11:03.390Z,979.20
2022-11-14T02:12:03.377Z,979.37
2022-11-14T02:13:03.364Z,979.35
2022-11-14T02:14:03.589Z,979.37
2022-11-14T02:15:03.545Z,979.52
2022-11-14T02:16:03.505Z,979.46
2022-11-14T02:17:29.902Z,979.43
2022-11-14T02:18:03.662Z,979.41
2022-11-14T02:19:03.719Z,979.44
2022-11-14T02:20:05.890Z,979.49
2022-11-14T02:21:03.060Z,979.44
2022-11-14T02:22:03.050Z,979.38
2022-11-14T02:23:03.077Z,979.39
2022-11-14T02:24:03.166Z,979.47
2022-11-14T02:25:03.206Z,979.56
2022-11-14T02:26:03.241Z,979.33
2022-11-14T02:27:03.453Z,979.42
2022-11-14T02:28:03.460Z,979.45
2022-11-14T02:29:03.409Z,979.42
2022-11-14T02:30:03.441Z,979.39
2022-11-14T02:31:03.443Z,979.40
2022-11-14T02:32:10.974Z,979.51
2022-11-14T02:33:12.120Z,979.45
2022-11-14T02:34:03.643Z,979.54
2022-11-14T02:35:03.697Z,979.51
2022-11-14T02:36:03.754Z,979.62
2022-11-14T02:37:03.864Z,979.46
2022-11-14T02:38:03.777Z,979.54
2022-11-14T02:39:03.815Z,979.37
2022-11-14T02:40:03.763Z,979.49
2022-11-14T02:41:03.878Z,979.49
2022-11-14T02:42:03.860Z,979.43
2022-11-14T02:43:02.956Z,979.46
2022-11-14T02:44:03.033Z,979.54
2022-11-14T02:45:03.113Z,979.49
2022-11-14T02:46:06.245Z,979.38
2022-11-14T02:47:03.730Z,979.32
2022-11-14T02:48:03.662Z,979.41
2022-11-14T02:49:03.709Z,979.30
2022-11-14T02:50:03.657Z,979.55
2022-11-14T02:51:03.626Z,979.46
2022-11-14T02:52:03.745Z,979.32
2022-11-14T02:53:03.862Z,979.35
2022-11-14T02:54:02.883Z,979.35
2022-11-14T02:55:03.247Z,979.52
2022-11-14T02:56:03.203Z,979.46
2022-11-14T02:57:03.340Z,979.46
2022-11-14T02:58:03.480Z,979.49
2022-11-14T02:59:03.614Z,979.41
2022-11-14T03:00:03.030Z,979.52
2022-11-14T03:01:21.590Z,979.32
2022-11-14T03:02:03.256Z,979.54
2022-11-14T03:03:03.062Z,979.57
2022-11-14T03:04:02.970Z,979.43
2022-11-14T03:05:03.057Z,979.57
2022-11-14T03:06:03.086Z,979.32
2022-11-14T03:07:03.294Z,979.32
2022-11-14T03:08:03.174Z,979.41
2022-11-14T03:09:03.247Z,979.41
2022-11-14T03:10:03.130Z,979.41
2022-11-14T03:11:03.514Z,979.41
2022-11-14T03:12:03.573Z,979.49
2022-11-14T03:13:03.576Z,979.55
2022-11-14T03:14:03.618Z,979.33
2022-11-14T03:15:03.627Z,979.47
2022-11-14T03:16:03.570Z,979.41
2022-11-14T03:17:03.755Z,979.41
2022-11-14T03:18:03.742Z,979.44
2022-11-14T03:19:07.691Z,979.38
2022-11-14T03:20:03.828Z,979.39
2022-11-14T03:21:03.945Z,979.33
2022-11-14T03:22:03.029Z,979.36
2022-11-14T03:23:02.984Z,979.47
2022-11-14T03:24:02.915Z,979.42
2022-11-14T03:25:02.998Z,979.42
2022-11-14T03:26:03.112Z,979.47
2022-11-14T03:27:03.105Z,979.45
2022-11-14T03:28:03.138Z,979.47
2022-11-14T03:29:03.125Z,979.34
2022-11-14T03:30:03.255Z,979.31
2022-11-14T03:31:03.293Z,979.45
2022-11-14T03:32:03.528Z,979.31
2022-11-14T03:33:03.445Z,979.28
2022-11-14T03:34:03.484Z,979.34
2022-11-14T03:35:03.414Z,979.20
2022-11-14T03:36:03.478Z,979.31
2022-11-14T03:37:03.605Z,979.42
2022-11-14T03:38:03.714Z,979.23
2022-11-14T03:39:03.610Z,979.20
2022-11-14T03:40:03.702Z,979.25
2022-11-14T03:41:03.730Z,979.25
2022-11-14T03:42:03.690Z,979.06
2022-11-14T03:43:03.812Z,979.06
2022-11-14T03:44:03.172Z,979.14
2022-11-14T03:45:03.364Z,979.09
2022-11-14T03:46:03.369Z,979.12
2022-11-14T03:47:03.388Z,979.09
2022-11-14T03:48:03.493Z,979.09
2022-11-14T03:49:03.431Z,979.14
2022-11-14T03:50:03.464Z,979.06
2022-11-14T03:51:03.811Z,979.06
2022-11-14T03:52:03.504Z,979.23
2022-11-14T03:53:03.545Z,979.14
2022-11-14T03:54:03.582Z,979.03
2022-11-14T03:55:03.627Z,979.12
2022-11-14T03:56:02.901Z,979.14
2022-11-14T03:57:03.048Z,979.26
2022-11-14T03:58:03.187Z,979.17
2022-11-14T03:59:03.094Z,979.34
2022-11-14T04:00:03.127Z,979.14
2022-11-14T04:01:03.279Z,979.28
2022-11-14T04:02:03.057Z,979.20
2022-11-14T04:03:03.144Z,979.17
2022-11-14T04:04:03.641Z,978.98
2022-11-14T04:05:03.548Z,979.00
2022-11-14T04:06:03.626Z,979.03
2022-11-14T04:07:03.668Z,979.00
2022-11-14T04:08:03.585Z,978.95
2022-11-14T04:09:03.593Z,978.92
2022-11-14T04:10:03.547Z,978.92
2022-11-14T04:11:03.609Z,978.92
2022-11-14T04:12:03.669Z,978.89
2022-11-14T04:13:03.781Z,978.86
2022-11-14T04:14:03.816Z,978.92
2022-11-14T04:15:03.017Z,978.84
2022-11-14T04:16:02.951Z,978.78
2022-11-14T04:17:03.381Z,978.64
2022-11-14T04:18:03.349Z,978.81
2022-11-14T04:19:03.466Z,978.72
2022-11-14T04:20:03.426Z,978.55
2022-11-14T04:21:03.483Z,978.89
2022-11-14T04:22:03.475Z,978.78
2022-11-14T04:23:03.513Z,978.78
2022-11-14T04:24:11.262Z,978.69
2022-11-14T04:25:03.516Z,978.78
2022-11-14T04:26:03.499Z,978.58
2022-11-14T04:27:03.491Z,978.58
2022-11-14T04:28:03.684Z,978.61
2022-11-14T04:29:03.773Z,978.58
2022-11-14T04:30:03.929Z,978.61
2022-11-14T04:31:02.901Z,978.64
2022-11-14T04:32:03.059Z,978.64
2022-11-14T04:33:03.013Z,978.69
2022-11-14T04:34:03.162Z,978.61
2022-11-14T04:35:03.139Z,978.50
2022-11-14T04:36:03.205Z,978.52
2022-11-14T04:37:03.706Z,978.47
2022-11-14T04:38:03.901Z,978.50
2022-11-14T04:39:03.917Z,978.34
2022-11-14T04:40:02.935Z,978.47
2022-11-14T04:41:03.136Z,978.47
2022-11-14T04:42:03.250Z,978.52
2022-11-14T04:43:03.163Z,978.52
2022-11-14T04:44:03.426Z,978.37
2022-11-14T04:45:03.585Z,978.47
2022-11-14T04:46:03.652Z,978.50
2022-11-14T04:47:03.846Z,978.50
2022-11-14T04:48:03.825Z,978.47
2022-11-14T04:49:02.884Z,978.50
2022-11-14T04:50:03.048Z,978.47
2022-11-14T04:51:03.102Z,978.37
2022-11-14T04:52:03.207Z,978.50
2022-11-14T04:53:03.154Z,978.50
2022-11-14T04:54:03.584Z,978.55
2022-11-14T04:55:03.399Z,978.66
2022-11-14T04:56:03.543Z,978.58
2022-11-14T04:57:03.544Z,978.43
2022-11-14T04:58:03.498Z,978.34
2022-11-14T04:59:03.755Z,978.43
2022-11-14T05:00:04.034Z,978.37
2022-11-14T05:01:03.927Z,978.42
2022-11-14T05:02:03.158Z,978.29
2022-11-14T05:03:03.203Z,978.40
2022-11-14T05:04:03.556Z,978.42
2022-11-14T05:05:03.424Z,978.29
2022-11-14T05:06:03.385Z,978.23
2022-11-14T05:07:03.753Z,978.50
2022-11-14T05:08:03.689Z,978.23
2022-11-14T05:09:03.817Z,978.34
2022-11-14T05:10:02.952Z,978.37
2022-11-14T05:11:02.967Z,978.25
2022-11-14T05:12:03.149Z,978.44
2022-11-14T05:13:03.291Z,978.14
2022-11-14T05:14:03.342Z,978.25
2022-11-14T05:15:03.431Z,978.25
2022-11-14T05:16:03.309Z,978.14
2022-11-14T05:17:03.409Z,978.20
2022-11-14T05:18:03.761Z,978.17
2022-11-14T05:19:03.913Z,978.25
2022-11-14T05:20:03.639Z,978.11
2022-11-14T05:21:03.792Z,978.20
2022-11-14T05:22:03.934Z,978.11
2022-11-14T05:23:03.856Z,978.28
2022-11-14T05:24:03.047Z,978.20
2022-11-14T05:25:04.621Z,978.20
2022-11-14T05:26:03.400Z,978.14
2022-11-14T05:27:03.481Z,978.28
2022-11-14T05:28:03.478Z,978.06
2022-11-14T05:29:03.477Z,978.06
2022-11-14T05:30:03.537Z,977.98
2022-11-14T05:31:03.602Z,978.03
2022-11-14T05:32:03.672Z,977.90
2022-11-14T05:33:03.654Z,978.06
2022-11-14T05:34:03.689Z,978.04
2022-11-14T05:35:03.843Z,978.09
2022-11-14T05:36:03.747Z,977.90
2022-11-14T05:37:03.764Z,978.09
2022-11-14T05:38:03.812Z,978.01
2022-11-14T05:39:03.836Z,977.90
2022-11-14T05:40:02.995Z,978.12
2022-11-14T05:41:02.892Z,978.01
2022-11-14T05:42:03.000Z,977.96
2022-11-14T05:43:03.082Z,978.07
2022-11-14T05:44:03.076Z,978.10
2022-11-14T05:45:03.041Z,978.15
2022-11-14T05:46:03.044Z,977.90
2022-11-14T05:47:03.091Z,978.07
2022-11-14T05:48:03.155Z,977.82
2022-11-14T05:49:03.076Z,978.07
2022-11-14T05:50:03.074Z,978.10
2022-11-14T05:51:03.399Z,977.96
2022-11-14T05:52:03.277Z,977.93
2022-11-14T05:53:03.231Z,978.07
2022-11-14T05:54:03.363Z,977.93
2022-11-14T05:55:03.448Z,978.01
2022-11-14T05:56:03.489Z,977.85
2022-11-14T05:57:03.546Z,977.96
2022-11-14T05:58:03.594Z,978.07
2022-11-14T05:59:03.857Z,978.01
2022-11-14T06:00:03.683Z,978.01
2022-11-14T06:01:03.775Z,977.87
2022-11-14T06:02:03.881Z,978.01
2022-11-14T06:03:03.755Z,978.01
2022-11-14T06:04:03.862Z,978.06
2022-11-14T06:05:03.941Z,977.89
2022-11-14T06:06:03.838Z,978.06
2022-11-14T06:07:03.923Z,978.06
2022-11-14T06:08:02.951Z,977.97
2022-11-14T06:09:03.007Z,977.92
2022-11-14T06:10:02.987Z,977.89
2022-11-14T06:11:02.963Z,977.86
2022-11-14T06:12:03.004Z,977.83
2022-11-14T06:13:03.015Z,977.77
2022-11-14T06:14:10.814Z,977.91
2022-11-14T06:15:03.013Z,977.91
2022-11-14T06:16:03.081Z,977.97
2022-11-14T06:17:03.118Z,977.99
2022-11-14T06:18:03.111Z,977.94
2022-11-14T06:19:03.149Z,977.85
2022-11-14T06:20:03.138Z,977.85
2022-11-14T06:21:03.091Z,977.88
2022-11-14T06:22:03.209Z,977.99
2022-11-14T06:23:03.151Z,977.96
2022-11-14T06:24:03.191Z,977.96
2022-11-14T06:25:03.046Z,977.93
2022-11-14T06:26:03.284Z,977.85
2022-11-14T06:27:03.291Z,977.85
2022-11-14T06:28:03.152Z,977.87
2022-11-14T06:29:03.237Z,977.93
2022-11-14T06:30:03.234Z,977.87
2022-11-14T06:31:03.270Z,977.87
2022-11-14T06:32:03.193Z,977.98
2022-11-14T06:33:03.224Z,977.90
2022-11-14T06:34:03.156Z,977.87
2022-11-14T06:35:03.214Z,977.79
2022-11-14T06:36:03.266Z,977.93
2022-11-14T06:37:03.204Z,978.04
2022-11-14T06:38:03.363Z,978.01
2022-11-14T06:39:03.406Z,978.01
2022-11-14T06:40:03.320Z,977.98
2022-11-14T06:41:03.258Z,977.93
2022-11-14T06:42:03.499Z,977.95
2022-11-14T06:43:03.300Z,977.95
2022-11-14T06:44:03.338Z,977.98
2022-11-14T06:45:03.337Z,977.92
2022-11-14T06:46:03.331Z,978.00
2022-11-14T06:47:03.275Z,978.03
2022-11-14T06:48:03.345Z,977.97
2022-11-14T06:49:03.232Z,978.08
2022-11-14T06:50:03.318Z,978.08
2022-11-14T06:51:03.051Z,977.91
2022-11-14T06:52:03.139Z,978.00
2022-11-14T06:53:03.153Z,977.97
2022-11-14T06:54:03.322Z,978.13
2022-11-14T06:55:03.226Z,977.88
2022-11-14T06:56:03.319Z,977.99
2022-11-14T06:57:03.288Z,978.12
2022-11-14T06:58:03.282Z,978.04
2022-11-14T06:59:03.503Z,978.12
2022-11-14T07:00:03.637Z,977.98
2022-11-14T07:01:03.658Z,978.06
2022-11-14T07:02:03.779Z,978.03
2022-11-14T07:03:04.077Z,978.03
2022-11-14T07:04:02.980Z,978.03
2022-11-14T07:05:03.100Z,978.00
2022-11-14T07:06:03.270Z,978.13
2022-11-14T07:07:02.969Z,977.88
2022-11-14T07:08:03.046Z,978.02
2022-11-14T07:10:03.590Z,977.99
2022-11-14T07:11:03.523Z,978.12
2022-11-14T07:12:03.575Z,978.04
2022-11-14T07:13:03.621Z,977.98
2022-11-14T07:14:03.775Z,977.98
2022-11-14T07:15:02.912Z,978.03
2022-11-14T07:16:03.066Z,977.97
2022-11-14T07:17:03.165Z,978.08
2022-11-14T07:18:03.195Z,977.97
2022-11-14T07:19:03.191Z,978.05
2022-11-14T07:20:03.314Z,978.10
2022-11-14T07:21:03.269Z,978.05
2022-11-14T07:22:03.345Z,977.96
2022-11-14T07:23:03.272Z,978.04
2022-11-14T07:24:03.378Z,977.93
2022-11-14T07:25:03.405Z,977.96
2022-11-14T07:26:03.495Z,977.90
2022-11-14T07:27:03.689Z,978.01
2022-11-14T07:28:03.701Z,978.06
2022-11-14T07:29:03.702Z,977.89
2022-11-14T07:30:03.651Z,977.97
2022-11-14T07:31:03.854Z,977.97
2022-11-14T07:32:02.970Z,977.94
2022-11-14T07:33:02.991Z,978.05
2022-11-14T07:34:03.016Z,977.97
2022-11-14T07:35:03.435Z,977.99
2022-11-14T07:36:02.947Z,978.05
2022-11-14T07:37:03.044Z,978.10
2022-11-14T07:38:03.047Z,977.91
2022-11-14T07:39:02.981Z,977.93
2022-11-14T07:40:03.064Z,977.96
2022-11-14T07:41:03.076Z,977.90
2022-11-14T07:42:03.171Z,978.07
2022-11-14T07:43:03.089Z,977.84
2022-11-14T07:44:03.167Z,978.09
2022-11-14T07:45:03.225Z,978.04
2022-11-14T07:46:03.157Z,977.98
2022-11-14T07:47:03.087Z,978.09
2022-11-14T07:48:03.171Z,978.06
2022-11-14T07:49:03.237Z,978.20
2022-11-14T07:50:03.249Z,978.34
2022-11-14T07:51:03.374Z,978.28
2022-11-14T07:52:03.513Z,978.39
2022-11-14T07:53:03.501Z,978.19
2022-11-14T07:54:03.565Z,978.24
2022-11-14T07:55:03.457Z,978.10
2022-11-14T07:56:03.536Z,978.15
2022-11-14T07:57:03.585Z,978.18
2022-11-14T07:58:03.712Z,978.26
2022-11-14T07:59:03.639Z,978.18
2022-11-14T08:00:03.723Z,978.20
2022-11-14T08:01:03.949Z,978.20
2022-11-14T08:02:03.739Z,978.06
2022-11-14T08:03:03.845Z,978.11
2022-11-14T08:04:02.976Z,978.14
2022-11-14T08:05:03.143Z,978.03
2022-11-14T08:06:03.156Z,977.97
2022-11-14T08:07:03.131Z,978.13
2022-11-14T08:08:03.154Z,978.02
2022-11-14T08:09:03.190Z,978.13
2022-11-14T08:10:03.265Z,977.96
2022-11-14T08:11:03.230Z,978.04
2022-11-14T08:12:03.338Z,978.04
2022-11-14T08:13:32.955Z,978.12
2022-11-14T08:14:03.475Z,977.89
2022-11-14T08:15:03.617Z,978.00
2022-11-14T08:16:12.707Z,977.92
2022-11-14T08:17:03.509Z,977.97
2022-11-14T08:18:03.620Z,977.89
2022-11-14T08:19:03.711Z,977.86
2022-11-14T08:20:03.605Z,977.83
2022-11-14T08:21:03.760Z,977.88
2022-11-14T08:22:03.793Z,977.74
2022-11-14T08:23:02.991Z,978.02
2022-11-14T08:24:02.969Z,977.90
2022-11-14T08:25:03.031Z,978.01
2022-11-14T08:26:03.094Z,978.01
2022-11-14T08:27:03.296Z,978.06
2022-11-14T08:28:03.246Z,977.92
2022-11-14T08:29:03.313Z,978.01
2022-11-14T08:30:03.439Z,978.06
2022-11-14T08:31:03.342Z,978.09
2022-11-14T08:32:03.173Z,978.06
2022-11-14T08:33:03.151Z,978.17
2022-11-14T08:34:03.381Z,978.06
2022-11-14T08:35:03.304Z,978.05
2022-11-14T08:36:03.374Z,978.16
2022-11-14T08:37:03.381Z,978.16
2022-11-14T08:38:03.322Z,978.10
2022-11-14T08:39:03.526Z,978.19
2022-11-14T08:40:03.448Z,978.07
2022-11-14T08:41:03.563Z,978.01
2022-11-14T08:42:03.637Z,977.90
2022-11-14T08:43:03.644Z,977.95
2022-11-14T08:44:03.814Z,978.01
2022-11-14T08:45:03.781Z,977.95
2022-11-14T08:46:03.757Z,978.03
2022-11-14T08:47:03.866Z,978.00
2022-11-14T08:48:03.931Z,977.91
2022-11-14T08:49:03.880Z,978.02
2022-11-14T08:50:03.906Z,978.02
2022-11-14T08:51:03.896Z,977.93
2022-11-14T08:52:03.859Z,977.93
2022-11-14T08:53:03.793Z,977.98
2022-11-14T08:54:03.916Z,978.04
2022-11-14T08:55:03.817Z,977.95
2022-11-14T08:56:03.957Z,977.98
2022-11-14T08:57:03.952Z,977.95
2022-11-14T08:58:02.981Z,978.03
2022-11-14T08:59:03.154Z,978.05
2022-11-14T09:00:03.140Z,977.94
2022-11-14T09:01:03.247Z,978.02
2022-11-14T09:02:03.327Z,977.93
2022-11-14T09:03:03.538Z,977.82
2022-11-14T09:04:03.752Z,977.85
2022-11-14T09:05:03.274Z,978.10
2022-11-14T09:06:03.268Z,978.04
2022-11-14T09:07:03.441Z,978.06
2022-11-14T09:08:03.380Z,978.03
2022-11-14T09:09:03.375Z,978.01
2022-11-14T09:10:03.304Z,977.97
2022-11-14T09:11:06.953Z,977.95
2022-11-14T09:12:03.618Z,977.91
2022-11-14T09:13:03.624Z,977.94
2022-11-14T09:14:03.686Z,977.97
2022-11-14T09:15:03.759Z,978.11
2022-11-14T09:16:03.852Z,977.91
2022-11-14T09:17:06.543Z,977.96
2022-11-14T09:18:03.015Z,978.19
2022-11-14T09:19:03.041Z,978.18
2022-11-14T09:20:03.006Z,978.13
2022-11-14T09:21:03.084Z,978.29
2022-11-14T09:22:03.290Z,978.06
2022-11-14T09:23:03.346Z,978.01
2022-11-14T09:24:03.337Z,978.12
2022-11-14T09:25:03.283Z,978.17
2022-11-14T09:26:03.278Z,978.11
2022-11-14T09:27:03.302Z,978.14
2022-11-14T09:28:03.368Z,978.25
2022-11-14T09:29:03.378Z,978.22
2022-11-14T09:30:03.432Z,978.30
2022-11-14T09:31:03.489Z,978.30
2022-11-14T09:32:03.445Z,978.30
2022-11-14T09:33:11.801Z,978.44
2022-11-14T09:34:03.568Z,978.57
2022-11-14T09:35:03.656Z,978.46
2022-11-14T09:36:03.908Z,978.51
2022-11-14T09:37:03.793Z,978.57
2022-11-14T09:38:03.958Z,978.62
2022-11-14T09:39:02.936Z,978.59
2022-11-14T09:40:03.119Z,978.59
2022-11-14T09:41:03.185Z,978.70
2022-11-14T09:42:03.284Z,978.62
2022-11-14T09:43:03.359Z,978.67
2022-11-14T09:44:03.479Z,978.67
2022-11-14T09:45:03.437Z,978.67
2022-11-14T09:46:03.531Z,978.67
2022-11-14T09:47:03.539Z,978.72
2022-11-14T09:48:03.591Z,978.61
2022-11-14T09:49:03.623Z,978.66
2022-11-14T09:50:03.764Z,978.55
2022-11-14T09:51:03.826Z,978.86
2022-11-14T09:52:03.858Z,978.57
2022-11-14T09:53:03.835Z,978.46
2022-11-14T09:54:03.004Z,978.68
2022-11-14T09:55:03.075Z,978.48
2022-11-14T09:56:03.041Z,978.51
2022-11-14T09:57:03.118Z,978.48
2022-11-14T09:58:03.137Z,978.57
2022-11-14T09:59:03.336Z,978.65
2022-11-14T10:00:03.265Z,978.65
2022-11-14T10:01:09.697Z,978.50
2022-11-14T10:02:03.431Z,978.62
2022-11-14T10:03:03.440Z,978.56
2022-11-14T10:04:09.732Z,978.50
2022-11-14T10:05:03.520Z,978.34
2022-11-14T10:06:03.648Z,978.47
2022-11-14T10:07:03.645Z,978.39
2022-11-14T10:08:03.616Z,978.52
2022-11-14T10:09:03.635Z,978.44
2022-11-14T10:10:03.606Z,978.49
2022-11-14T10:11:03.850Z,978.41
2022-11-14T10:12:03.858Z,978.49
2022-11-14T10:13:03.800Z,978.46
2022-11-14T10:14:03.884Z,978.38
2022-11-14T10:15:02.908Z,978.51
2022-11-14T10:16:03.130Z,978.48
2022-11-14T10:17:10.807Z,978.41
2022-11-14T10:18:03.184Z,978.38
2022-11-14T10:19:03.163Z,978.38
2022-11-14T10:20:03.189Z,978.40
2022-11-14T10:21:03.295Z,978.43
2022-11-14T10:22:03.250Z,978.45
2022-11-14T10:23:03.288Z,978.34
2022-11-14T10:24:03.341Z,978.47
2022-11-14T10:25:03.515Z,978.56
2022-11-14T10:26:03.517Z,978.44
2022-11-14T10:27:03.450Z,978.55
2022-11-14T10:28:05.842Z,978.39
2022-11-14T10:29:03.576Z,978.52
2022-11-14T10:30:03.521Z,978.47
2022-11-14T10:31:03.617Z,978.42
2022-11-14T10:32:03.731Z,978.46
2022-11-14T10:33:03.910Z,978.44
2022-11-14T10:34:03.885Z,978.55
2022-11-14T10:35:02.932Z,978.60
2022-11-14T10:36:03.130Z,978.41
2022-11-14T10:37:03.253Z,978.38
2022-11-14T10:38:03.250Z,978.41
2022-11-14T10:39:03.359Z,978.45
2022-11-14T10:40:03.369Z,978.40
2022-11-14T10:41:03.390Z,978.51
2022-11-14T10:42:08.218Z,978.53
2022-11-14T10:43:03.501Z,978.47
2022-11-14T10:44:03.576Z,978.43
2022-11-14T10:45:03.657Z,978.47
2022-11-14T10:46:03.677Z,978.58
2022-11-14T10:47:03.610Z,978.55
2022-11-14T10:48:03.816Z,978.58
2022-11-14T10:49:03.901Z,978.58
2022-11-14T10:50:03.937Z,978.44
2022-11-14T10:51:03.082Z,978.52
2022-11-14T10:52:03.128Z,978.60
2022-11-14T10:53:03.102Z,978.60
2022-11-14T10:54:03.224Z,978.60
2022-11-14T10:55:03.280Z,978.54
2022-11-14T10:56:05.547Z,978.60
2022-11-14T10:57:03.458Z,978.57
2022-11-14T10:58:03.411Z,978.65
2022-11-14T10:59:03.555Z,978.45
2022-11-14T11:00:03.628Z,978.71
2022-11-14T11:01:03.754Z,978.51
2022-11-14T11:02:03.674Z,978.45
2022-11-14T11:03:03.899Z,978.62
2022-11-14T11:04:03.080Z,978.62
2022-11-14T11:05:03.070Z,978.68
2022-11-14T11:06:03.037Z,978.70
2022-11-14T11:07:03.213Z,978.53
2022-11-14T11:08:41.795Z,978.50
2022-11-14T11:09:03.411Z,978.47
2022-11-14T11:10:03.290Z,978.61
2022-11-14T11:11:03.224Z,978.53
2022-11-14T11:12:03.302Z,978.64
2022-11-14T11:13:03.580Z,978.61
2022-11-14T11:14:03.385Z,978.64
2022-11-14T11:15:03.457Z,978.66
2022-11-14T11:16:03.696Z,978.75
2022-11-14T11:17:03.842Z,978.69
2022-11-14T11:18:03.755Z,978.69
2022-11-14T11:19:03.903Z,978.57
2022-11-14T11:20:07.875Z,978.60
2022-11-14T11:21:03.920Z,978.63
2022-11-14T11:22:03.828Z,978.68
2022-11-14T11:23:03.995Z,978.77
2022-11-14T11:24:03.978Z,978.65
2022-11-14T11:25:03.818Z,978.71
2022-11-14T11:26:03.021Z,978.68
2022-11-14T11:27:03.004Z,978.79
2022-11-14T11:28:03.062Z,978.59
2022-11-14T11:29:03.142Z,978.76
2022-11-14T11:30:03.205Z,978.73
2022-11-14T11:31:03.219Z,978.73
2022-11-14T11:32:03.287Z,978.87
2022-11-14T11:33:03.307Z,978.84
2022-11-14T11:34:03.401Z,978.78
2022-11-14T11:35:03.363Z,978.93
2022-11-14T11:36:03.416Z,978.84
2022-11-14T11:37:03.456Z,978.81
2022-11-14T11:38:03.480Z,978.84
2022-11-14T11:39:03.566Z,978.89
2022-11-14T11:40:03.595Z,978.75
2022-11-14T11:41:03.559Z,978.69
2022-11-14T11:42:11.178Z,978.80
2022-11-14T11:43:40.201Z,978.77
2022-11-14T11:44:04.668Z,978.60
2022-11-14T11:45:02.978Z,978.77
2022-11-14T11:46:03.103Z,978.80
2022-11-14T11:47:03.222Z,978.89
2022-11-14T11:48:03.086Z,978.88
2022-11-14T11:49:03.215Z,978.83
2022-11-14T11:50:03.321Z,978.77
2022-11-14T11:51:03.244Z,978.88
2022-11-14T11:52:03.243Z,978.76
2022-11-14T11:53:03.163Z,978.88
2022-11-14T11:54:03.233Z,978.99
2022-11-14T11:55:03.304Z,978.82
2022-11-14T11:56:03.325Z,978.82
2022-11-14T11:57:03.449Z,978.90
2022-11-14T11:58:03.608Z,978.79
2022-11-14T11:59:03.651Z,978.81
2022-11-14T12:00:03.606Z,978.87
2022-11-14T12:01:03.647Z,978.87
2022-11-14T12:02:03.921Z,978.78
2022-11-14T12:03:04.164Z,978.90
2022-11-14T12:04:03.954Z,978.90
2022-11-14T12:05:03.807Z,978.84
2022-11-14T12:06:03.758Z,978.81
2022-11-14T12:07:03.056Z,978.89
2022-11-14T12:08:03.029Z,979.04
2022-11-14T12:09:03.128Z,978.95
2022-11-14T12:10:11.433Z,978.92
2022-11-14T12:11:03.045Z,978.78
2022-11-14T12:12:03.051Z,978.89
2022-11-14T12:13:03.227Z,978.78
2022-11-14T12:14:03.191Z,978.86
2022-11-14T12:15:03.257Z,978.80
2022-11-14T12:16:03.821Z,978.92
2022-11-14T12:17:03.419Z,978.92
2022-11-14T12:18:03.601Z,978.97
2022-11-14T12:19:03.644Z,979.00
2022-11-14T12:20:03.620Z,978.97
2022-11-14T12:21:03.595Z,978.86
2022-11-14T12:22:03.585Z,978.86
2022-11-14T12:23:03.648Z,978.83
2022-11-14T12:24:03.643Z,978.92
2022-11-14T12:25:03.756Z,978.94
2022-11-14T12:26:03.976Z,978.86
2022-11-14T12:27:03.844Z,978.86
2022-11-14T12:28:04.148Z,978.97
2022-11-14T12:29:03.078Z,978.91